Time;durP1;ratioP1;P1;durP2;ratioP2;P2;SDS_P1;SDS_P2;PMS_P1;PMS_P2;Temp;Humidity;BMP_temperature;BMP_pressure;BME280_temperature;BME280_humidity;BME280_pressure;Samples;Min_cycle;Max_cycle;Signal;HPM_P1;HPM_P2
2022/01/25 00:10:02;;;;;;;45.30;19.70;;;3.00;86.10;;;;;;5014653;28;20431;-77
2022/01/25 00:15:51;;;;;;;33.58;12.85;;;2.90;86.90;;;;;;5015184;28;20037;-77
2022/01/25 00:31:27;;;;;;;47.00;20.27;;;3.30;85.90;;;;;;5016410;28;20105;-77
2022/01/25 00:33:54;;;;;;;38.22;15.27;;;3.30;85.20;;;;;;5014975;28;20042;-77
2022/01/25 00:36:24;;;;;;;48.15;17.65;;;3.30;85.20;;;;;;5014985;28;20026;-77
2022/01/25 00:38:51;;;;;;;58.72;22.65;;;3.20;85.70;;;;;;5014898;28;20041;-77
2022/01/25 00:41:18;;;;;;;45.33;19.27;;;3.30;85.60;;;;;;5014921;28;20484;-77
2022/01/25 00:43:45;;;;;;;45.55;16.60;;;3.30;85.10;;;;;;5014675;28;20025;-76
2022/01/25 00:46:12;;;;;;;54.53;21.55;;;3.30;85.50;;;;;;5014419;28;20022;-77
2022/01/25 00:56:18;;;;;;;49.13;20.63;;;3.40;85.00;;;;;;5054574;28;20021;-77
2022/01/25 00:58:52;;;;;;;56.95;21.52;;;3.50;85.30;;;;;;5027719;28;20637;-77
2022/01/25 01:01:19;;;;;;;49.22;20.08;;;3.50;85.10;;;;;;5024910;28;20048;-77
2022/01/25 01:03:45;;;;;;;57.10;20.75;;;3.50;84.90;;;;;;5054145;28;20035;-77
2022/01/25 01:06:12;;;;;;;48.05;17.88;;;3.50;84.70;;;;;;5052807;28;20089;-77
2022/01/25 01:08:38;;;;;;;29.73;12.68;;;3.30;85.60;;;;;;5024417;28;20145;-77
2022/01/25 01:11:08;;;;;;;42.45;17.77;;;3.20;85.80;;;;;;5014741;28;20018;-77
2022/01/25 01:43:31;;;;;;;47.50;19.63;;;3.20;85.30;;;;;;5017857;28;20044;-77
2022/01/25 01:48:30;;;;;;;;;;;3.30;86.00;;;;;;5018174;28;20038;-77
2022/01/25 01:51:05;;;;;;;41.20;16.27;;;3.30;85.40;;;;;;5017563;28;19909;-77
2022/01/25 01:53:31;;;;;;;18.02;7.57;;;3.20;85.60;;;;;;5032148;28;20578;-77
2022/01/25 01:55:58;;;;;;;50.00;16.10;;;3.10;85.40;;;;;;5028264;28;20033;-77
2022/01/25 01:58:23;;;;;;;37.42;15.77;;;3.10;85.40;;;;;;5016900;28;20056;-77
2022/01/25 02:00:50;;;;;;;42.20;18.00;;;3.00;85.50;;;;;;5017206;28;20034;-77
2022/01/25 02:03:17;;;;;;;32.58;13.65;;;3.10;85.90;;;;;;5017411;28;20030;-77
2022/01/25 02:05:42;;;;;;;37.97;15.80;;;3.10;85.60;;;;;;5017101;28;20030;-77
2022/01/25 02:08:08;;;;;;;42.72;16.23;;;3.20;85.90;;;;;;5017101;28;20048;-77
2022/01/25 02:10:35;;;;;;;42.22;16.20;;;3.10;85.20;;;;;;5016950;28;20061;-77
2022/01/25 02:13:05;;;;;;;28.15;13.25;;;3.00;85.50;;;;;;5017139;28;20026;-77
2022/01/25 02:15:31;;;;;;;34.75;15.50;;;2.90;86.20;;;;;;5017313;28;20030;-77
2022/01/25 02:22:25;;;;;;;26.10;11.93;;;2.90;86.50;;;;;;5016776;28;20520;-77
2022/01/25 02:23:28;;;;;;;39.13;16.23;;;3.00;86.00;;;;;;5017126;28;20029;-77
2022/01/25 02:26:00;;;;;;;36.67;15.73;;;2.90;86.40;;;;;;5029457;28;20056;-77
2022/01/25 02:28:29;;;;;;;40.03;15.35;;;2.90;86.40;;;;;;5016836;28;20033;-77
2022/01/25 02:30:55;;;;;;;41.65;17.42;;;2.90;86.20;;;;;;5016505;28;20481;-77
2022/01/25 02:33:22;;;;;;;41.63;16.58;;;2.90;86.30;;;;;;5016510;28;20028;-77
2022/01/25 02:35:51;;;;;;;44.20;16.75;;;2.80;86.40;;;;;;5016339;28;20022;-77
2022/01/25 02:38:26;;;;;;;49.15;16.23;;;2.80;86.50;;;;;;5016429;28;20030;-77
2022/01/25 02:40:52;;;;;;;43.55;16.55;;;2.80;85.80;;;;;;5016549;28;20408;-77
2022/01/25 02:43:20;;;;;;;48.08;16.92;;;2.90;86.20;;;;;;5016423;28;20025;-77
2022/01/25 02:45:51;;;;;;;36.95;15.35;;;2.90;85.70;;;;;;5016497;28;20093;-77
2022/01/25 02:48:30;;;;;;;40.45;14.65;;;2.90;85.60;;;;;;5016577;28;20030;-77
2022/01/25 02:51:00;;;;;;;35.30;14.38;;;2.90;85.50;;;;;;5016203;28;20060;-77
2022/01/25 02:53:26;;;;;;;40.67;15.05;;;2.80;85.80;;;;;;5029774;28;20112;-77
2022/01/25 02:55:52;;;;;;;36.22;15.48;;;2.80;86.10;;;;;;5055604;28;20033;-77
2022/01/25 02:58:23;;;;;;;29.52;12.73;;;2.80;86.40;;;;;;5055955;28;20572;-76
2022/01/25 03:00:49;;;;;;;40.95;16.13;;;2.90;85.90;;;;;;5029113;28;20041;-78
2022/01/25 03:03:15;;;;;;;37.50;15.80;;;2.80;86.00;;;;;;5016222;28;20375;-77
2022/01/25 03:05:42;;;;;;;29.58;14.73;;;2.80;86.40;;;;;;5016177;28;20458;-77
2022/01/25 03:08:11;;;;;;;37.83;15.52;;;2.90;85.80;;;;;;5016287;28;20053;-77
2022/01/25 03:10:40;;;;;;;39.10;14.20;;;2.90;85.80;;;;;;5016132;28;20026;-77
2022/01/25 03:13:10;;;;;;;41.05;16.35;;;3.00;85.60;;;;;;5015726;28;20084;-77
2022/01/25 03:15:56;;;;;;;40.38;15.75;;;2.90;86.00;;;;;;5015549;28;20479;-76
2022/01/25 03:21:21;;;;;;;39.13;15.85;;;3.20;85.40;;;;;;5016250;28;20060;-77
2022/01/25 03:23:50;;;;;;;35.92;16.15;;;3.20;85.10;;;;;;5015963;28;20199;-77
2022/01/25 03:26:16;;;;;;;39.00;14.88;;;3.20;84.70;;;;;;5015809;28;20117;-77
2022/01/25 03:28:42;;;;;;;33.42;14.73;;;3.10;84.70;;;;;;5015460;28;20029;-77
2022/01/25 03:31:08;;;;;;;34.20;13.77;;;3.00;84.80;;;;;;5015374;28;20033;-77
2022/01/25 03:33:34;;;;;;;36.55;15.48;;;2.90;85.00;;;;;;5015383;28;20447;-77
2022/01/25 03:36:00;;;;;;;31.58;13.07;;;2.70;85.80;;;;;;5015622;28;20025;-77
2022/01/25 03:38:26;;;;;;;41.17;15.25;;;2.70;85.90;;;;;;5015385;28;20053;-76
2022/01/25 03:40:51;;;;;;;23.02;9.13;;;2.60;86.40;;;;;;5015640;28;20053;-77
2022/01/25 03:43:18;;;;;;;29.17;12.63;;;2.60;86.50;;;;;;5015424;28;20026;-77
2022/01/25 03:45:57;;;;;;;26.35;11.40;;;2.70;86.70;;;;;;5014954;28;20026;-77
2022/01/25 03:50:50;;;;;;;24.17;11.23;;;2.50;86.70;;;;;;5015855;28;20113;-77
2022/01/25 03:53:17;;;;;;;34.58;13.18;;;2.50;86.40;;;;;;5017267;28;20021;-77
2022/01/25 03:55:44;;;;;;;32.20;11.07;;;2.50;86.30;;;;;;5015348;28;20037;-76
2022/01/25 03:58:09;;;;;;;25.08;11.93;;;2.40;86.00;;;;;;5015387;28;20054;-77
2022/01/25 04:00:37;;;;;;;35.63;14.38;;;2.40;86.80;;;;;;5015096;28;20030;-77
2022/01/25 04:03:08;;;;;;;27.00;11.75;;;2.40;86.40;;;;;;5015152;28;20172;-77
2022/01/25 04:05:38;;;;;;;30.98;13.27;;;2.30;85.80;;;;;;5014837;28;20057;-77
2022/01/25 04:08:05;;;;;;;24.05;10.52;;;2.20;86.00;;;;;;5015600;28;20028;-76
2022/01/25 04:10:31;;;;;;;34.67;12.52;;;2.30;86.70;;;;;;5015060;28;20394;-77
2022/01/25 04:12:57;;;;;;;25.90;11.50;;;2.40;86.60;;;;;;5015178;28;20036;-77
2022/01/25 04:15:23;;;;;;;24.92;12.45;;;2.50;86.30;;;;;;5014964;28;20508;-77
2022/01/25 04:18:00;;;;;;;23.60;9.75;;;2.50;86.10;;;;;;5015179;28;20022;-77
2022/01/25 04:20:31;;;;;;;26.27;11.68;;;2.50;86.30;;;;;;5015201;28;20109;-77
2022/01/25 04:25:41;;;;;;;26.67;12.30;;;2.50;85.90;;;;;;5015019;28;20511;-77
2022/01/25 04:28:07;;;;;;;35.05;11.07;;;2.50;85.30;;;;;;5014956;28;20057;-77
2022/01/25 04:30:32;;;;;;;22.80;10.10;;;2.40;85.60;;;;;;5014785;28;20022;-77
2022/01/25 04:33:02;;;;;;;27.48;12.10;;;2.40;85.80;;;;;;5015209;28;20042;-77
2022/01/25 04:49:29;;;;;;;24.70;10.48;;;2.70;85.20;;;;;;5014607;28;20041;-77
2022/01/25 04:52:01;;;;;;;28.90;12.20;;;2.60;85.30;;;;;;5030277;28;20025;-77
2022/01/25 05:00:20;;;;;;;22.38;10.80;;;2.70;84.50;;;;;;5017281;28;20038;-77
2022/01/25 05:10:18;;;;;;;32.60;10.50;;;2.40;84.80;;;;;;5018414;28;20121;-77
2022/01/25 05:12:50;;;;;;;25.95;11.25;;;2.50;85.60;;;;;;5018061;28;20026;-77
2022/01/25 05:15:27;;;;;;;36.35;11.63;;;2.50;85.30;;;;;;5017826;28;20084;-76
2022/01/25 05:18:38;;;;;;;28.67;11.40;;;2.50;84.90;;;;;;5018477;28;20022;-76
2022/01/25 05:23:32;;;;;;;26.83;11.63;;;2.50;84.80;;;;;;5017887;28;20033;-77
2022/01/25 05:25:57;;;;;;;31.00;11.07;;;2.40;84.20;;;;;;5033144;28;20026;-77
2022/01/25 05:28:23;;;;;;;23.65;10.93;;;2.30;84.90;;;;;;5017896;28;20108;-77
2022/01/25 05:30:50;;;;;;;24.80;10.55;;;2.30;85.10;;;;;;5017161;28;20034;-77
2022/01/25 05:33:16;;;;;;;28.30;11.00;;;2.30;84.70;;;;;;5017558;28;20029;-78
2022/01/25 05:35:41;;;;;;;25.38;10.63;;;2.50;85.10;;;;;;5017946;28;20033;-78
2022/01/25 05:38:09;;;;;;;24.73;10.80;;;2.40;84.80;;;;;;5033011;28;20475;-77
2022/01/25 05:46:11;;;;;;;24.25;11.13;;;2.50;85.00;;;;;;5017655;28;20022;-78
2022/01/25 05:48:37;;;;;;;23.13;9.15;;;2.60;84.70;;;;;;5017614;28;20507;-78
2022/01/25 08:02:52;;;;;;;20.17;9.20;;;0.30;92.20;;;;;;5068821;28;20910;-75
2022/01/25 08:05:20;;;;;;;22.27;9.32;;;0.50;92.10;;;;;;5059854;28;20028;-73
2022/01/25 08:07:45;;;;;;;20.13;10.60;;;0.80;91.30;;;;;;5059944;28;20056;-73
2022/01/25 08:10:12;;;;;;;31.88;12.68;;;1.10;90.90;;;;;;5055271;28;20028;-73
2022/01/25 08:12:38;;;;;;;20.05;9.57;;;1.20;89.50;;;;;;5045237;28;20484;-73
2022/01/25 08:15:06;;;;;;;26.27;11.30;;;1.40;88.90;;;;;;5065282;28;20111;-73
2022/01/25 08:17:32;;;;;;;30.17;13.32;;;1.60;88.80;;;;;;5057416;28;20070;-74
2022/01/25 08:19:58;;;;;;;19.25;11.20;;;1.70;88.10;;;;;;5040833;28;20041;-74
2022/01/25 08:22:24;;;;;;;22.88;10.65;;;1.80;87.40;;;;;;5058523;28;20453;-74
2022/01/25 08:24:51;;;;;;;20.50;9.65;;;2.00;87.30;;;;;;5054966;28;20037;-74
2022/01/25 08:27:20;;;;;;;21.90;10.40;;;2.20;87.10;;;;;;5059007;28;20486;-73
2022/01/25 08:29:46;;;;;;;25.52;10.57;;;2.20;85.20;;;;;;5060517;28;20505;-74
2022/01/25 08:32:12;;;;;;;20.58;10.63;;;2.20;86.40;;;;;;5057288;28;20028;-74
2022/01/25 08:34:38;;;;;;;21.30;10.85;;;2.20;84.50;;;;;;5059796;28;20111;-74
2022/01/25 08:37:04;;;;;;;24.15;11.10;;;2.30;85.10;;;;;;5061243;28;20043;-74
2022/01/25 08:39:30;;;;;;;20.10;9.40;;;2.30;84.90;;;;;;5056985;28;20108;-74
2022/01/25 08:41:55;;;;;;;18.67;9.15;;;2.30;84.50;;;;;;5061497;28;20111;-74
2022/01/25 08:44:21;;;;;;;20.63;9.15;;;2.40;85.10;;;;;;5040415;28;20025;-74
2022/01/25 08:46:47;;;;;;;31.85;12.30;;;2.40;84.50;;;;;;5048010;28;20029;-74
2022/01/25 08:49:13;;;;;;;22.33;10.15;;;2.40;83.80;;;;;;5031567;28;20029;-74
2022/01/25 08:51:39;;;;;;;20.00;9.85;;;2.40;83.80;;;;;;5031157;28;20034;-74
2022/01/25 08:54:05;;;;;;;23.10;10.25;;;2.50;84.20;;;;;;5044440;28;20037;-74
2022/01/25 08:56:31;;;;;;;21.48;9.13;;;2.50;84.10;;;;;;5033118;28;20034;-74
2022/01/25 08:58:57;;;;;;;20.10;10.68;;;2.40;83.50;;;;;;5036561;28;20079;-73
2022/01/25 09:01:23;;;;;;;20.50;9.57;;;2.40;84.10;;;;;;5048953;28;20127;-74
2022/01/25 09:03:49;;;;;;;21.75;9.85;;;2.30;82.60;;;;;;5049787;28;20064;-74
2022/01/25 09:06:15;;;;;;;20.73;10.02;;;2.20;83.40;;;;;;5037382;28;20037;-74
2022/01/25 09:08:40;;;;;;;19.02;9.02;;;2.20;83.50;;;;;;5085829;28;20143;-73
2022/01/25 09:11:07;;;;;;;15.10;8.48;;;2.10;83.50;;;;;;5053277;28;20033;-73
2022/01/25 09:13:33;;;;;;;17.25;9.40;;;2.20;84.40;;;;;;5041246;28;20025;-74
2022/01/25 09:16:00;;;;;;;25.20;11.30;;;2.10;84.00;;;;;;5037155;28;20553;-74
2022/01/25 09:18:26;;;;;;;22.27;10.75;;;2.20;84.10;;;;;;5046152;28;20028;-74
2022/01/25 09:20:52;;;;;;;22.10;9.57;;;2.10;83.60;;;;;;5045339;28;20041;-74
2022/01/25 09:23:19;;;;;;;24.42;10.70;;;2.10;84.30;;;;;;5045999;28;20092;-74
2022/01/25 09:25:47;;;;;;;22.40;10.50;;;2.30;84.50;;;;;;5043362;28;20083;-74
2022/01/25 09:28:13;;;;;;;24.27;10.85;;;2.30;84.10;;;;;;5051487;28;20025;-74
2022/01/25 09:30:39;;;;;;;22.83;11.02;;;2.30;84.00;;;;;;5056539;28;20108;-74
2022/01/25 09:33:05;;;;;;;26.08;11.48;;;2.40;83.90;;;;;;5039530;28;20116;-74
2022/01/25 09:35:31;;;;;;;21.25;11.05;;;2.40;84.20;;;;;;5040643;28;20028;-74
2022/01/25 09:37:57;;;;;;;25.70;10.93;;;2.40;83.60;;;;;;5055765;28;20083;-74
2022/01/25 09:40:23;;;;;;;21.70;10.50;;;2.40;84.30;;;;;;5044713;28;20022;-74
2022/01/25 09:42:54;;;;;;;26.63;10.80;;;2.50;84.60;;;;;;5017681;28;20136;-74
2022/01/25 09:45:21;;;;;;;30.70;11.63;;;2.70;84.10;;;;;;5022460;28;20032;-74
2022/01/25 09:47:48;;;;;;;23.73;11.93;;;2.70;83.50;;;;;;5043393;28;20036;-74
2022/01/25 09:50:15;;;;;;;30.90;13.35;;;2.80;83.30;;;;;;5033533;28;20037;-74
2022/01/25 09:52:45;;;;;;;25.13;10.57;;;2.70;83.30;;;;;;5021766;28;20438;-74
2022/01/25 09:55:20;;;;;;;28.50;11.13;;;2.80;83.30;;;;;;5056712;28;20013;-74
2022/01/25 09:57:46;;;;;;;29.52;12.85;;;2.80;83.20;;;;;;5056156;28;20075;-74
2022/01/25 10:00:14;;;;;;;23.63;12.13;;;2.90;83.50;;;;;;5015088;28;20022;-74
2022/01/25 10:02:55;;;;;;;33.28;13.27;;;3.00;83.50;;;;;;5016506;28;20462;-74
2022/01/25 10:05:32;;;;;;;22.88;12.35;;;3.00;83.10;;;;;;5015557;28;20032;-74
2022/01/25 10:08:12;;;;;;;27.08;11.90;;;3.10;82.80;;;;;;5017908;28;20117;-74
2022/01/25 10:10:51;;;;;;;21.40;10.95;;;3.10;82.60;;;;;;5039984;28;20512;-74
2022/01/25 10:13:31;;;;;;;25.05;11.25;;;3.10;82.40;;;;;;5036429;28;20034;-74
2022/01/25 10:16:06;;;;;;;25.02;11.38;;;3.20;82.40;;;;;;5036118;28;20022;-74
2022/01/25 10:18:43;;;;;;;26.48;11.55;;;3.20;82.40;;;;;;5037368;28;20033;-74
2022/01/25 10:21:16;;;;;;;22.38;10.70;;;3.20;82.20;;;;;;5015988;28;20384;-74
2022/01/25 10:24:03;;;;;;;26.50;11.23;;;3.00;81.30;;;;;;5046145;28;20427;-73
2022/01/25 10:26:34;;;;;;;29.70;12.35;;;2.80;82.20;;;;;;5014521;28;20400;-74
2022/01/25 10:29:00;;;;;;;;;;;2.70;83.30;;;;;;5030610;28;20056;-74
2022/01/25 10:31:34;;;;;;;26.77;11.38;;;2.70;82.90;;;;;;5039774;28;20007;-74
2022/01/25 10:34:00;;;;;;;31.30;12.93;;;2.70;83.10;;;;;;5033091;28;20026;-74
2022/01/25 10:36:26;;;;;;;26.55;12.27;;;2.80;83.30;;;;;;5014779;28;20036;-74
2022/01/25 10:38:54;;;;;;;34.35;12.75;;;2.90;83.00;;;;;;5022265;28;20106;-74
2022/01/25 10:41:22;;;;;;;29.23;12.10;;;3.10;83.10;;;;;;5020726;28;20061;-74
2022/01/25 10:43:50;;;;;;;28.42;13.77;;;3.20;82.40;;;;;;5041333;28;20074;-74
2022/01/25 10:46:27;;;;;;;33.70;13.18;;;3.00;82.50;;;;;;5039269;28;20773;-74
2022/01/25 10:48:54;;;;;;;25.08;12.35;;;2.90;82.60;;;;;;5037743;28;22042;-74
2022/01/25 10:51:29;;;;;;;29.63;11.68;;;2.90;83.00;;;;;;5038180;28;20094;-74
2022/01/25 10:53:59;;;;;;;29.60;13.52;;;2.80;82.60;;;;;;5055539;28;20522;-74
2022/01/25 10:56:25;;;;;;;32.95;12.80;;;2.90;82.70;;;;;;5038150;28;20561;-74
2022/01/25 10:58:50;;;;;;;30.30;13.85;;;2.80;82.40;;;;;;5038943;28;20025;-74
2022/01/25 11:01:34;;;;;;;34.15;14.68;;;2.80;83.40;;;;;;5050468;28;20060;-81
2022/01/25 11:04:06;;;;;;;35.78;13.55;;;3.00;83.20;;;;;;5032703;28;22092;-75
2022/01/25 11:06:31;;;;;;;32.72;12.65;;;3.00;82.70;;;;;;5027448;28;20041;-74
2022/01/25 11:09:00;;;;;;;32.10;13.93;;;3.00;82.70;;;;;;5035160;28;20021;-75
2022/01/25 11:11:30;;;;;;;37.58;13.02;;;3.10;83.00;;;;;;5024377;28;20045;-75
2022/01/25 11:14:00;;;;;;;29.83;13.90;;;3.00;82.70;;;;;;5019711;28;20518;-75
2022/01/25 11:16:26;;;;;;;38.70;14.43;;;3.00;82.70;;;;;;5025354;28;20399;-75
2022/01/25 11:18:52;;;;;;;40.30;14.55;;;3.00;82.90;;;;;;5029652;28;20044;-76
2022/01/25 11:21:19;;;;;;;28.58;13.32;;;3.10;82.70;;;;;;5047627;28;20031;-77
2022/01/25 11:23:45;;;;;;;31.70;14.60;;;3.20;82.40;;;;;;5033054;28;20104;-76
2022/01/25 11:26:13;;;;;;;34.70;14.18;;;3.20;82.30;;;;;;5022889;28;20030;-77
2022/01/25 11:28:40;;;;;;;38.70;16.13;;;3.30;82.70;;;;;;5027369;28;20048;-80
2022/01/25 11:31:16;;;;;;;25.77;10.73;;;3.30;82.30;;;;;;5047800;28;20037;-77
2022/01/25 11:33:47;;;;;;;32.17;14.50;;;3.30;82.00;;;;;;5018355;28;20030;-76
2022/01/25 11:36:14;;;;;;;33.08;15.73;;;3.40;82.20;;;;;;5029508;28;20029;-76
2022/01/25 11:38:43;;;;;;;25.50;13.13;;;3.30;82.10;;;;;;5022664;28;20033;-83
2022/01/25 11:41:11;;;;;;;44.40;17.17;;;3.40;81.90;;;;;;5032238;28;20112;-77
2022/01/25 11:43:37;;;;;;;34.05;16.23;;;3.40;81.30;;;;;;5029027;28;20037;-77
2022/01/25 11:46:05;;;;;;;33.05;15.25;;;3.40;82.30;;;;;;5017488;28;20076;-77
2022/01/25 11:48:41;;;;;;;38.42;17.73;;;3.40;82.40;;;;;;5023751;28;20115;-77
2022/01/25 11:51:16;;;;;;;32.50;16.40;;;3.40;82.20;;;;;;5031062;28;20487;-75
2022/01/25 11:53:44;;;;;;;33.95;15.68;;;3.50;81.90;;;;;;5026436;28;20055;-77
2022/01/25 11:56:11;;;;;;;38.10;16.45;;;3.60;82.40;;;;;;5025174;28;20030;-78
2022/01/25 11:58:37;;;;;;;41.20;18.40;;;3.60;81.90;;;;;;5023169;28;20022;-76
2022/01/25 12:01:15;;;;;;;39.95;16.27;;;3.60;81.70;;;;;;5026875;28;20357;-76
2022/01/25 12:03:44;;;;;;;34.80;16.23;;;3.60;81.60;;;;;;5014646;28;20117;-76
2022/01/25 12:06:21;;;;;;;44.28;19.15;;;3.60;82.10;;;;;;5024046;28;20049;-77
2022/01/25 12:11:28;;;;;;;32.58;15.63;;;3.60;82.00;;;;;;5031452;28;20033;-75
2022/01/25 12:14:09;;;;;;;;;;;3.50;82.40;;;;;;5032303;28;20017;-76
2022/01/25 12:16:37;;;;;;;;;;;3.50;82.30;;;;;;5025412;28;19909;-76
2022/01/25 12:19:05;;;;;;;40.28;15.25;;;3.60;82.40;;;;;;5032512;28;19912;-76
2022/01/25 12:21:50;;;;;;;40.47;15.82;;;3.60;82.60;;;;;;5030278;28;20093;-76
2022/01/25 12:24:21;;;;;;;34.97;13.93;;;3.60;81.90;;;;;;5033466;28;20036;-76
2022/01/25 12:29:57;;;;;;;28.85;14.02;;;3.60;82.40;;;;;;5035664;28;20530;-76
2022/01/25 12:32:31;;;;;;;37.80;14.50;;;3.70;82.70;;;;;;5014854;28;20405;-75
2022/01/25 12:34:57;;;;;;;35.85;16.48;;;3.80;82.10;;;;;;5024017;28;20017;-76
2022/01/25 12:37:45;;;;;;;38.03;15.30;;;3.80;82.30;;;;;;5052276;28;20029;-75
2022/01/25 12:40:28;;;;;;;43.78;18.75;;;3.80;81.70;;;;;;5038320;28;20053;-75
2022/01/25 12:43:03;;;;;;;50.85;22.55;;;3.70;82.10;;;;;;5014263;28;20091;-75
2022/01/25 12:45:33;;;;;;;42.25;16.80;;;3.70;82.50;;;;;;5022598;28;20071;-75
2022/01/25 12:48:05;;;;;;;39.45;18.23;;;3.80;82.60;;;;;;5019535;28;20033;-75
2022/01/25 12:50:34;;;;;;;36.72;16.17;;;3.80;82.60;;;;;;5021161;28;20061;-75
2022/01/25 12:53:01;;;;;;;36.30;16.13;;;3.80;82.00;;;;;;5026797;28;20021;-75
2022/01/25 12:55:35;;;;;;;39.33;16.33;;;3.80;82.70;;;;;;5035033;28;20025;-75
2022/01/25 12:58:02;;;;;;;42.53;17.70;;;3.80;82.20;;;;;;5041580;28;20045;-76
2022/01/25 13:00:31;;;;;;;41.83;16.83;;;3.90;82.60;;;;;;5043904;28;20124;-75
2022/01/25 13:03:13;;;;;;;41.63;16.40;;;4.00;82.40;;;;;;5044458;28;20021;-76
2022/01/25 13:05:46;;;;;;;37.58;15.73;;;4.00;82.40;;;;;;5050600;28;20021;-75
2022/01/25 13:08:21;;;;;;;43.33;18.15;;;4.00;81.70;;;;;;5052810;28;20049;-75
2022/01/25 13:10:49;;;;;;;46.45;16.08;;;4.00;82.20;;;;;;5029027;28;20045;-75
2022/01/25 13:13:30;;;;;;;49.33;20.08;;;4.00;82.30;;;;;;5036259;28;20426;-76
2022/01/25 13:15:57;;;;;;;34.05;14.70;;;4.00;82.30;;;;;;5036092;28;20403;-75
2022/01/25 13:18:29;;;;;;;43.67;16.88;;;3.90;82.60;;;;;;5036029;28;20043;-75
2022/01/25 13:21:05;;;;;;;34.53;15.30;;;3.90;83.30;;;;;;5036300;28;20044;-75
2022/01/25 13:23:32;;;;;;;37.58;16.42;;;3.90;83.30;;;;;;5036168;28;20448;-76
2022/01/25 13:26:10;;;;;;;38.10;17.23;;;4.00;83.40;;;;;;5036984;28;20048;-75
2022/01/25 13:31:13;;;;;;;40.85;14.32;;;4.00;82.50;;;;;;5017718;28;20037;-75
2022/01/25 13:33:39;;;;;;;45.42;16.65;;;3.90;83.30;;;;;;5035684;28;20645;-75
2022/01/25 13:36:08;;;;;;;47.78;18.30;;;4.00;83.30;;;;;;5036296;28;20029;-76
2022/01/25 13:38:39;;;;;;;38.00;18.42;;;4.00;83.10;;;;;;5036874;28;20020;-85
2022/01/25 13:46:51;;;;;;;32.13;13.27;;;4.00;82.60;;;;;;5028801;28;20047;-75
2022/01/25 13:49:19;;;;;;;36.70;15.38;;;3.90;82.80;;;;;;5017159;28;20111;-75
2022/01/25 13:51:45;;;;;;;38.88;16.08;;;3.90;82.90;;;;;;5015194;28;20073;-75
2022/01/25 13:54:16;;;;;;;44.55;18.00;;;4.00;83.00;;;;;;5042650;28;20021;-75
2022/01/25 13:56:42;;;;;;;34.83;16.25;;;4.10;83.20;;;;;;5026739;28;20086;-75
2022/01/25 13:59:09;;;;;;;45.40;18.60;;;4.10;83.00;;;;;;5016697;28;20022;-75
2022/01/25 14:01:37;;;;;;;45.58;20.85;;;4.10;82.90;;;;;;5016472;28;20409;-75
2022/01/25 14:04:04;;;;;;;40.45;18.42;;;4.20;83.20;;;;;;5025286;28;20036;-75
2022/01/25 14:06:41;;;;;;;31.67;14.88;;;4.20;83.00;;;;;;5015205;28;20037;-75
2022/01/25 14:09:15;;;;;;;44.38;16.05;;;4.20;82.70;;;;;;5015532;28;20116;-75
2022/01/25 14:21:40;;;;;;;55.05;24.35;;;4.10;83.10;;;;;;5034744;28;20037;-75
2022/01/25 14:22:56;;;;;;;35.47;15.55;;;4.10;83.10;;;;;;5056285;28;20023;-75
2022/01/25 14:25:42;;;;;;;44.05;18.10;;;4.00;83.30;;;;;;5040075;28;20036;-75
2022/01/25 14:28:12;;;;;;;42.53;19.17;;;3.90;83.70;;;;;;5034636;28;20038;-75
2022/01/25 14:31:00;;;;;;;48.00;19.95;;;3.90;84.00;;;;;;5035659;28;20033;-74
2022/01/25 14:33:29;;;;;;;38.25;15.40;;;3.80;84.10;;;;;;5014971;28;20025;-75
2022/01/25 14:36:00;;;;;;;32.45;12.63;;;3.80;84.10;;;;;;5015731;28;20443;-75
2022/01/25 14:38:35;;;;;;;41.38;18.10;;;3.80;83.90;;;;;;5015808;28;20049;-75
2022/01/25 14:41:19;;;;;;;53.42;20.83;;;3.90;84.40;;;;;;5014592;28;20637;-75
2022/01/25 14:43:53;;;;;;;46.90;19.52;;;3.90;83.90;;;;;;5016166;28;20053;-78
2022/01/25 14:46:34;;;;;;;45.30;18.55;;;3.90;84.00;;;;;;5014309;28;20030;-75
2022/01/25 14:49:20;;;;;;;44.75;19.20;;;3.90;84.20;;;;;;5047755;28;20088;-75
2022/01/25 14:51:52;;;;;;;38.35;16.83;;;3.80;84.00;;;;;;5014078;28;20057;-75
2022/01/25 14:54:22;;;;;;;41.72;18.13;;;3.90;84.10;;;;;;5043416;28;20032;-75
2022/01/25 14:56:53;;;;;;;40.42;19.02;;;3.80;84.20;;;;;;5029589;28;20030;-75
2022/01/25 14:59:47;;;;;;;50.95;20.42;;;3.90;84.30;;;;;;5015526;28;20587;-75
2022/01/25 15:02:16;;;;;;;57.25;20.90;;;3.90;84.20;;;;;;5015128;28;20108;-75
2022/01/25 15:04:47;;;;;;;51.33;21.50;;;4.10;84.30;;;;;;5015621;28;20038;-75
2022/01/25 15:07:23;;;;;;;83.32;33.50;;;4.00;84.00;;;;;;5015689;28;20507;-75
2022/01/25 15:09:57;;;;;;;54.03;25.67;;;4.10;83.90;;;;;;5015616;28;20403;-75
2022/01/25 15:12:29;;;;;;;52.95;21.48;;;4.10;83.70;;;;;;5022109;28;20032;-75
2022/01/25 15:15:08;;;;;;;53.17;22.13;;;4.00;83.50;;;;;;5015412;28;20383;-75
2022/01/25 15:17:34;;;;;;;47.90;19.02;;;4.00;84.00;;;;;;5026224;28;20035;-75
2022/01/25 15:20:00;;;;;;;45.35;19.08;;;4.10;83.90;;;;;;5035190;28;20033;-75
2022/01/25 15:22:27;;;;;;;44.88;18.88;;;4.20;83.90;;;;;;5029627;28;20034;-75
2022/01/25 15:24:53;;;;;;;49.50;18.75;;;4.20;83.60;;;;;;5015384;28;20018;-75
2022/01/25 15:27:27;;;;;;;53.13;21.63;;;4.20;83.50;;;;;;5047495;28;20117;-75
2022/01/25 15:29:53;;;;;;;43.20;19.48;;;4.10;83.80;;;;;;5019184;28;20045;-75
2022/01/25 15:32:19;;;;;;;59.92;23.77;;;4.20;83.80;;;;;;5026206;28;20033;-75
2022/01/25 15:34:44;;;;;;;53.15;21.80;;;4.10;83.40;;;;;;5034568;28;20069;-75
2022/01/25 15:37:12;;;;;;;53.13;22.75;;;4.10;83.90;;;;;;5029614;28;20068;-75
2022/01/25 15:39:38;;;;;;;49.03;20.75;;;4.20;83.80;;;;;;5014985;28;20022;-75
2022/01/25 15:42:04;;;;;;;52.08;22.00;;;4.20;83.90;;;;;;5014118;28;20036;-75
2022/01/25 15:44:50;;;;;;;56.90;21.25;;;4.20;83.70;;;;;;5014461;28;20052;-75
2022/01/25 15:47:19;;;;;;;53.70;23.17;;;4.20;83.70;;;;;;5014147;28;20030;-75
2022/01/25 15:49:45;;;;;;;57.80;21.83;;;4.10;83.80;;;;;;5031370;28;20120;-75
2022/01/25 15:52:12;;;;;;;54.40;22.08;;;4.10;84.00;;;;;;5018913;28;20030;-75
2022/01/25 15:54:38;;;;;;;46.92;19.83;;;4.00;84.50;;;;;;5046242;28;20085;-75
2022/01/25 15:57:06;;;;;;;51.95;24.23;;;4.10;84.40;;;;;;5053703;28;20029;-75
2022/01/25 15:59:32;;;;;;;68.35;24.77;;;4.20;84.10;;;;;;5049443;28;20029;-75
2022/01/25 16:02:09;;;;;;;61.38;23.52;;;4.20;83.90;;;;;;5034410;28;20045;-75
2022/01/25 16:04:41;;;;;;;49.92;20.85;;;4.20;83.70;;;;;;5020388;28;20034;-76
2022/01/25 16:07:10;;;;;;;50.42;22.42;;;4.30;83.30;;;;;;5014564;28;20028;-75
2022/01/25 16:09:41;;;;;;;59.33;24.75;;;4.20;83.70;;;;;;5015078;28;20026;-75
2022/01/25 16:12:08;;;;;;;57.72;22.48;;;4.30;83.50;;;;;;5034542;28;20037;-75
2022/01/25 16:14:35;;;;;;;53.13;22.77;;;4.30;83.40;;;;;;5031950;28;20025;-75
2022/01/25 16:17:02;;;;;;;54.78;23.60;;;4.30;83.40;;;;;;5033384;28;20053;-75
2022/01/25 16:19:28;;;;;;;54.13;22.10;;;4.30;83.40;;;;;;5034789;28;20033;-75
2022/01/25 16:21:53;;;;;;;56.65;23.23;;;4.30;83.40;;;;;;5021885;28;20026;-75
2022/01/25 16:24:19;;;;;;;57.90;23.23;;;4.30;83.60;;;;;;5020670;28;20037;-74
2022/01/25 16:26:45;;;;;;;45.85;19.92;;;4.30;83.50;;;;;;5036962;28;20036;-75
2022/01/25 16:29:11;;;;;;;49.90;21.45;;;4.30;83.60;;;;;;5038122;28;20399;-75
2022/01/25 16:31:38;;;;;;;48.97;19.98;;;4.30;83.50;;;;;;5018664;28;20030;-75
2022/01/25 16:34:05;;;;;;;51.75;20.25;;;4.30;83.50;;;;;;5050031;28;20034;-75
2022/01/25 16:36:33;;;;;;;56.17;21.35;;;4.40;83.20;;;;;;5052696;28;20047;-75
2022/01/25 16:39:00;;;;;;;89.35;35.97;;;4.30;83.50;;;;;;5043254;28;20034;-75
2022/01/25 16:41:25;;;;;;;103.70;38.92;;;4.30;83.50;;;;;;5016980;28;20029;-75
2022/01/25 16:43:51;;;;;;;101.18;38.63;;;4.30;83.60;;;;;;5058764;28;20029;-74
2022/01/25 16:46:18;;;;;;;80.25;32.13;;;4.40;83.50;;;;;;5036158;28;20026;-74
2022/01/25 16:48:45;;;;;;;78.90;32.65;;;4.40;83.30;;;;;;5034105;28;20030;-74
2022/01/25 16:51:11;;;;;;;80.25;32.75;;;4.40;83.30;;;;;;5047019;28;20021;-74
2022/01/25 16:53:37;;;;;;;77.15;31.95;;;4.50;83.30;;;;;;5028312;28;20030;-74
2022/01/25 16:56:03;;;;;;;71.47;29.10;;;4.50;83.40;;;;;;5032190;28;20026;-76
2022/01/25 16:58:30;;;;;;;65.68;25.40;;;4.50;83.20;;;;;;5036774;28;20033;-75
2022/01/25 17:00:56;;;;;;;62.50;24.85;;;4.50;83.10;;;;;;5031561;28;20033;-76
2022/01/25 17:03:22;;;;;;;70.28;28.42;;;4.50;83.20;;;;;;5036782;28;20033;-75
2022/01/25 17:05:48;;;;;;;64.80;26.48;;;4.50;83.40;;;;;;5036454;28;20044;-75
2022/01/25 17:08:15;;;;;;;74.32;31.70;;;4.50;83.30;;;;;;5033457;28;20023;-75
2022/01/25 17:10:42;;;;;;;62.95;27.85;;;4.50;83.40;;;;;;5036466;28;20030;-75
2022/01/25 17:13:08;;;;;;;76.72;33.00;;;4.50;83.40;;;;;;5036913;28;20033;-75
2022/01/25 17:15:34;;;;;;;77.18;31.50;;;4.50;83.40;;;;;;5033612;28;20526;-75